createdAt,value
2018-03-23T00:30:27.541Z,33.73
2018-03-23T00:33:18.225Z,40.53
2018-03-23T00:36:46.046Z,48.83
2018-03-23T00:42:46.243Z,52.57
2018-03-23T00:45:26.845Z,61.83
2018-03-23T00:48:06.376Z,56.97
2018-03-23T00:50:53.382Z,56.40
2018-03-23T00:53:38.319Z,53.30
2018-03-23T00:56:17.215Z,60.73
2018-03-23T00:59:01.631Z,49.83
2018-03-23T01:01:47.758Z,63.87
2018-03-23T01:04:32.776Z,68.93
2018-03-23T01:07:16.025Z,69.50
2018-03-23T01:09:55.328Z,71.72
2018-03-23T01:12:36.504Z,62.10
2018-03-23T01:19:28.449Z,77.57
2018-03-23T01:22:20.634Z,76.73
2018-03-23T01:25:01.607Z,80.53
2018-03-23T01:27:47.046Z,76.82
2018-03-23T01:35:59.738Z,71.37
2018-03-23T01:38:57.509Z,78.37
2018-03-23T01:42:01.260Z,81.17
2018-03-23T01:44:49.284Z,90.07
2018-03-23T01:47:24.446Z,77.07
2018-03-23T01:50:06.294Z,89.37
2018-03-23T03:36:22.836Z,100.20
2018-03-23T03:55:34.737Z,120.83
2018-03-23T03:58:11.195Z,100.20
2018-03-23T04:00:49.479Z,99.53
2018-03-23T04:06:30.726Z,128.70
2018-03-23T04:09:07.038Z,112.67
2018-03-23T04:11:49.442Z,117.10
2018-03-23T04:14:32.464Z,145.20
2018-03-23T04:17:31.036Z,129.97
2018-03-23T04:20:25.267Z,118.63
2018-03-23T04:23:05.480Z,145.07
2018-03-23T16:02:22.970Z,31.13
2018-03-23T16:13:20.437Z,24.57
2018-03-23T16:19:16.151Z,26.80
2018-03-23T16:22:10.111Z,21.97
2018-03-23T16:43:31.040Z,17.20
2018-03-23T16:46:42.118Z,14.40
2018-03-23T20:32:29.784Z,33.17
2018-03-23T20:38:31.246Z,29.97
2018-03-23T20:41:40.954Z,23.10
2018-03-23T20:57:13.737Z,20.53
2018-03-23T21:06:25.071Z,16.33
